sensor_id;sensor_type;location;lat;lon;timestamp;temperature;humidity
4677;DHT22;2352;48.180;11.478;2022-11-12T00:00:26;9.20;94.30
4677;DHT22;2352;48.180;11.478;2022-11-12T00:03:28;9.10;94.40
4677;DHT22;2352;48.180;11.478;2022-11-12T00:06:31;9.10;94.20
4677;DHT22;2352;48.180;11.478;2022-11-12T00:09:34;9.10;94.00
4677;DHT22;2352;48.180;11.478;2022-11-12T00:12:37;9.10;94.10
4677;DHT22;2352;48.180;11.478;2022-11-12T00:15:41;9.10;94.30
4677;DHT22;2352;48.180;11.478;2022-11-12T00:18:44;9.10;94.30
4677;DHT22;2352;48.180;11.478;2022-11-12T00:21:48;9.10;94.20
4677;DHT22;2352;48.180;11.478;2022-11-12T00:24:51;8.90;94.60
4677;DHT22;2352;48.180;11.478;2022-11-12T00:28:00;8.80;94.70
4677;DHT22;2352;48.180;11.478;2022-11-12T00:31:09;8.80;95.00
4677;DHT22;2352;48.180;11.478;2022-11-12T00:34:12;8.70;95.10
4677;DHT22;2352;48.180;11.478;2022-11-12T00:37:15;8.80;95.10
4677;DHT22;2352;48.180;11.478;2022-11-12T00:40:19;8.80;95.10
4677;DHT22;2352;48.180;11.478;2022-11-12T00:43:22;8.90;94.80
4677;DHT22;2352;48.180;11.478;2022-11-12T00:46:26;8.90;94.80
4677;DHT22;2352;48.180;11.478;2022-11-12T00:49:29;8.90;94.90
4677;DHT22;2352;48.180;11.478;2022-11-12T00:52:32;8.90;94.90
4677;DHT22;2352;48.180;11.478;2022-11-12T00:55:35;8.90;94.90
4677;DHT22;2352;48.180;11.478;2022-11-12T00:58:38;8.90;95.20
4677;DHT22;2352;48.180;11.478;2022-11-12T01:01:42;8.90;95.10
4677;DHT22;2352;48.180;11.478;2022-11-12T01:04:44;8.80;95.20
4677;DHT22;2352;48.180;11.478;2022-11-12T01:07:47;8.80;95.20
4677;DHT22;2352;48.180;11.478;2022-11-12T01:11:04;8.90;94.70
4677;DHT22;2352;48.180;11.478;2022-11-12T01:14:08;8.90;94.70
4677;DHT22;2352;48.180;11.478;2022-11-12T01:17:12;8.80;94.60
4677;DHT22;2352;48.180;11.478;2022-11-12T01:20:15;8.80;94.60
4677;DHT22;2352;48.180;11.478;2022-11-12T01:23:18;8.60;94.80
4677;DHT22;2352;48.180;11.478;2022-11-12T01:26:22;8.60;94.60
4677;DHT22;2352;48.180;11.478;2022-11-12T01:29:24;8.70;94.70
4677;DHT22;2352;48.180;11.478;2022-11-12T01:32:28;8.70;94.70
4677;DHT22;2352;48.180;11.478;2022-11-12T01:35:31;8.60;94.90
4677;DHT22;2352;48.180;11.478;2022-11-12T01:38:35;8.60;95.10
4677;DHT22;2352;48.180;11.478;2022-11-12T01:41:39;8.60;95.10
4677;DHT22;2352;48.180;11.478;2022-11-12T01:44:44;8.60;95.30
4677;DHT22;2352;48.180;11.478;2022-11-12T01:47:49;8.60;95.30
4677;DHT22;2352;48.180;11.478;2022-11-12T01:50:54;8.60;95.60
4677;DHT22;2352;48.180;11.478;2022-11-12T01:54:00;8.70;95.20
4677;DHT22;2352;48.180;11.478;2022-11-12T01:57:05;8.70;95.30
4677;DHT22;2352;48.180;11.478;2022-11-12T02:00:12;8.70;95.10
4677;DHT22;2352;48.180;11.478;2022-11-12T02:03:19;8.60;95.10
4677;DHT22;2352;48.180;11.478;2022-11-12T02:06:22;8.60;95.00
4677;DHT22;2352;48.180;11.478;2022-11-12T02:09:26;8.60;94.70
4677;DHT22;2352;48.180;11.478;2022-11-12T02:12:29;8.60;94.80
4677;DHT22;2352;48.180;11.478;2022-11-12T02:15:49;8.50;94.80
4677;DHT22;2352;48.180;11.478;2022-11-12T02:18:53;8.40;94.80
4677;DHT22;2352;48.180;11.478;2022-11-12T02:21:58;8.50;94.80
4677;DHT22;2352;48.180;11.478;2022-11-12T02:25:00;8.40;94.80
4677;DHT22;2352;48.180;11.478;2022-11-12T02:28:06;8.40;94.80
4677;DHT22;2352;48.180;11.478;2022-11-12T02:31:09;8.40;94.90
4677;DHT22;2352;48.180;11.478;2022-11-12T02:34:12;8.50;95.00
4677;DHT22;2352;48.180;11.478;2022-11-12T02:37:16;8.50;94.70
4677;DHT22;2352;48.180;11.478;2022-11-12T02:40:19;8.50;94.70
4677;DHT22;2352;48.180;11.478;2022-11-12T02:43:22;8.50;94.60
4677;DHT22;2352;48.180;11.478;2022-11-12T02:46:25;8.50;94.80
4677;DHT22;2352;48.180;11.478;2022-11-12T02:49:28;8.50;94.80
4677;DHT22;2352;48.180;11.478;2022-11-12T02:52:33;8.50;94.80
4677;DHT22;2352;48.180;11.478;2022-11-12T02:55:36;8.40;94.90
4677;DHT22;2352;48.180;11.478;2022-11-12T02:58:39;8.40;94.80
4677;DHT22;2352;48.180;11.478;2022-11-12T03:01:42;8.50;94.80
4677;DHT22;2352;48.180;11.478;2022-11-12T03:04:44;8.50;94.60
4677;DHT22;2352;48.180;11.478;2022-11-12T03:07:55;8.40;94.70
4677;DHT22;2352;48.180;11.478;2022-11-12T03:10:57;8.50;94.70
4677;DHT22;2352;48.180;11.478;2022-11-12T03:14:01;8.50;94.70
4677;DHT22;2352;48.180;11.478;2022-11-12T03:17:03;8.50;94.50
4677;DHT22;2352;48.180;11.478;2022-11-12T03:20:07;8.50;94.40
4677;DHT22;2352;48.180;11.478;2022-11-12T03:23:11;8.50;94.40
4677;DHT22;2352;48.180;11.478;2022-11-12T03:26:14;8.50;94.50
4677;DHT22;2352;48.180;11.478;2022-11-12T03:29:17;8.40;94.90
4677;DHT22;2352;48.180;11.478;2022-11-12T03:32:20;8.50;94.90
4677;DHT22;2352;48.180;11.478;2022-11-12T03:35:23;8.50;94.90
4677;DHT22;2352;48.180;11.478;2022-11-12T03:38:28;8.40;95.10
4677;DHT22;2352;48.180;11.478;2022-11-12T03:41:31;8.50;95.10
4677;DHT22;2352;48.180;11.478;2022-11-12T03:44:34;8.40;95.20
4677;DHT22;2352;48.180;11.478;2022-11-12T03:47:40;8.40;95.40
4677;DHT22;2352;48.180;11.478;2022-11-12T03:50:43;8.40;95.30
4677;DHT22;2352;48.180;11.478;2022-11-12T03:53:48;8.40;95.50
4677;DHT22;2352;48.180;11.478;2022-11-12T03:56:50;8.40;95.40
4677;DHT22;2352;48.180;11.478;2022-11-12T03:59:53;8.40;95.30
4677;DHT22;2352;48.180;11.478;2022-11-12T04:02:57;8.30;95.40
4677;DHT22;2352;48.180;11.478;2022-11-12T04:06:00;8.30;95.30
4677;DHT22;2352;48.180;11.478;2022-11-12T04:09:21;8.30;95.50
4677;DHT22;2352;48.180;11.478;2022-11-12T04:12:24;8.20;95.50
4677;DHT22;2352;48.180;11.478;2022-11-12T04:15:45;8.20;95.60
4677;DHT22;2352;48.180;11.478;2022-11-12T04:19:10;8.30;95.60
4677;DHT22;2352;48.180;11.478;2022-11-12T04:22:31;8.20;95.50
4677;DHT22;2352;48.180;11.478;2022-11-12T04:25:35;8.20;95.70
4677;DHT22;2352;48.180;11.478;2022-11-12T04:28:55;8.20;95.70
4677;DHT22;2352;48.180;11.478;2022-11-12T04:32:16;8.20;95.50
4677;DHT22;2352;48.180;11.478;2022-11-12T04:35:20;8.20;95.40
4677;DHT22;2352;48.180;11.478;2022-11-12T04:38:23;8.20;95.50
4677;DHT22;2352;48.180;11.478;2022-11-12T04:41:27;8.20;95.40
4677;DHT22;2352;48.180;11.478;2022-11-12T04:44:48;8.20;95.30
4677;DHT22;2352;48.180;11.478;2022-11-12T04:48:05;8.30;95.40
4677;DHT22;2352;48.180;11.478;2022-11-12T04:51:07;8.30;95.30
4677;DHT22;2352;48.180;11.478;2022-11-12T04:54:24;8.20;95.30
4677;DHT22;2352;48.180;11.478;2022-11-12T04:57:28;8.20;95.40
4677;DHT22;2352;48.180;11.478;2022-11-12T05:00:31;8.20;95.80
4677;DHT22;2352;48.180;11.478;2022-11-12T05:03:34;8.20;95.50
4677;DHT22;2352;48.180;11.478;2022-11-12T05:06:37;8.30;95.60
4677;DHT22;2352;48.180;11.478;2022-11-12T05:09:55;8.20;95.80
4677;DHT22;2352;48.180;11.478;2022-11-12T05:12:59;8.30;95.70
4677;DHT22;2352;48.180;11.478;2022-11-12T05:16:02;8.20;96.10
4677;DHT22;2352;48.180;11.478;2022-11-12T05:19:05;8.00;95.90
4677;DHT22;2352;48.180;11.478;2022-11-12T05:22:09;8.10;96.20
4677;DHT22;2352;48.180;11.478;2022-11-12T05:25:31;8.10;96.30
4677;DHT22;2352;48.180;11.478;2022-11-12T05:28:36;8.10;96.30
4677;DHT22;2352;48.180;11.478;2022-11-12T05:31:38;8.00;96.40
4677;DHT22;2352;48.180;11.478;2022-11-12T05:34:41;8.00;96.50
4677;DHT22;2352;48.180;11.478;2022-11-12T05:37:44;8.00;96.60
4677;DHT22;2352;48.180;11.478;2022-11-12T05:40:47;8.00;96.70
4677;DHT22;2352;48.180;11.478;2022-11-12T05:43:51;8.00;96.60
4677;DHT22;2352;48.180;11.478;2022-11-12T05:46:54;8.00;96.70
4677;DHT22;2352;48.180;11.478;2022-11-12T05:49:57;7.90;97.00
4677;DHT22;2352;48.180;11.478;2022-11-12T05:53:00;8.00;97.00
4677;DHT22;2352;48.180;11.478;2022-11-12T05:56:03;8.00;96.80
4677;DHT22;2352;48.180;11.478;2022-11-12T05:59:09;8.00;96.80
4677;DHT22;2352;48.180;11.478;2022-11-12T06:02:12;8.10;96.80
4677;DHT22;2352;48.180;11.478;2022-11-12T06:05:15;8.10;96.90
4677;DHT22;2352;48.180;11.478;2022-11-12T06:08:18;8.10;96.70
4677;DHT22;2352;48.180;11.478;2022-11-12T06:11:21;8.20;96.70
4677;DHT22;2352;48.180;11.478;2022-11-12T06:14:25;8.20;96.50
4677;DHT22;2352;48.180;11.478;2022-11-12T06:17:28;8.10;96.30
4677;DHT22;2352;48.180;11.478;2022-11-12T06:20:31;8.10;96.40
4677;DHT22;2352;48.180;11.478;2022-11-12T06:23:33;8.00;96.40
4677;DHT22;2352;48.180;11.478;2022-11-12T06:26:36;8.10;96.50
4677;DHT22;2352;48.180;11.478;2022-11-12T06:29:40;8.20;96.60
4677;DHT22;2352;48.180;11.478;2022-11-12T06:32:45;8.20;96.50
4677;DHT22;2352;48.180;11.478;2022-11-12T06:35:55;8.30;96.40
4677;DHT22;2352;48.180;11.478;2022-11-12T06:38:58;8.30;96.00
4677;DHT22;2352;48.180;11.478;2022-11-12T06:42:01;8.10;95.90
4677;DHT22;2352;48.180;11.478;2022-11-12T06:45:06;8.10;95.90
4677;DHT22;2352;48.180;11.478;2022-11-12T06:48:09;8.00;95.80
4677;DHT22;2352;48.180;11.478;2022-11-12T06:51:16;8.00;96.00
4677;DHT22;2352;48.180;11.478;2022-11-12T06:54:19;7.90;96.30
4677;DHT22;2352;48.180;11.478;2022-11-12T06:57:22;7.90;96.20
4677;DHT22;2352;48.180;11.478;2022-11-12T07:00:26;7.80;96.20
4677;DHT22;2352;48.180;11.478;2022-11-12T07:03:28;7.90;96.50
4677;DHT22;2352;48.180;11.478;2022-11-12T07:06:32;7.90;96.50
4677;DHT22;2352;48.180;11.478;2022-11-12T07:09:35;7.80;96.60
4677;DHT22;2352;48.180;11.478;2022-11-12T07:12:38;7.80;96.60
4677;DHT22;2352;48.180;11.478;2022-11-12T07:15:42;7.80;96.60
4677;DHT22;2352;48.180;11.478;2022-11-12T07:18:46;7.70;96.80
4677;DHT22;2352;48.180;11.478;2022-11-12T07:21:49;7.70;96.90
4677;DHT22;2352;48.180;11.478;2022-11-12T07:24:52;7.70;97.00
4677;DHT22;2352;48.180;11.478;2022-11-12T07:27:55;7.70;97.20
4677;DHT22;2352;48.180;11.478;2022-11-12T07:31:01;7.60;97.10
4677;DHT22;2352;48.180;11.478;2022-11-12T07:34:04;7.70;97.00
4677;DHT22;2352;48.180;11.478;2022-11-12T07:37:07;7.80;96.70
4677;DHT22;2352;48.180;11.478;2022-11-12T07:40:10;7.80;96.30
4677;DHT22;2352;48.180;11.478;2022-11-12T07:43:13;7.80;96.70
4677;DHT22;2352;48.180;11.478;2022-11-12T07:46:19;7.90;96.10
4677;DHT22;2352;48.180;11.478;2022-11-12T07:49:22;7.80;96.40
4677;DHT22;2352;48.180;11.478;2022-11-12T07:52:24;7.80;96.30
4677;DHT22;2352;48.180;11.478;2022-11-12T07:55:28;7.70;96.40
4677;DHT22;2352;48.180;11.478;2022-11-12T07:58:32;7.70;96.90
4677;DHT22;2352;48.180;11.478;2022-11-12T08:01:37;7.70;97.10
4677;DHT22;2352;48.180;11.478;2022-11-12T08:04:41;7.80;97.00
4677;DHT22;2352;48.180;11.478;2022-11-12T08:07:44;7.70;97.10
4677;DHT22;2352;48.180;11.478;2022-11-12T08:10:47;7.80;96.90
4677;DHT22;2352;48.180;11.478;2022-11-12T08:13:49;7.90;96.90
4677;DHT22;2352;48.180;11.478;2022-11-12T08:16:54;7.80;96.70
4677;DHT22;2352;48.180;11.478;2022-11-12T08:19:56;7.80;97.10
4677;DHT22;2352;48.180;11.478;2022-11-12T08:23:00;7.80;97.10
4677;DHT22;2352;48.180;11.478;2022-11-12T08:26:05;7.90;97.20
4677;DHT22;2352;48.180;11.478;2022-11-12T08:29:07;7.80;97.00
4677;DHT22;2352;48.180;11.478;2022-11-12T08:32:12;7.90;96.90
4677;DHT22;2352;48.180;11.478;2022-11-12T08:35:15;8.00;97.20
4677;DHT22;2352;48.180;11.478;2022-11-12T08:38:17;8.00;97.20
4677;DHT22;2352;48.180;11.478;2022-11-12T08:41:21;8.10;97.20
4677;DHT22;2352;48.180;11.478;2022-11-12T08:44:24;8.20;97.40
4677;DHT22;2352;48.180;11.478;2022-11-12T08:47:28;8.20;97.30
4677;DHT22;2352;48.180;11.478;2022-11-12T08:50:32;8.20;97.50
4677;DHT22;2352;48.180;11.478;2022-11-12T08:53:35;8.20;97.10
4677;DHT22;2352;48.180;11.478;2022-11-12T08:56:38;8.20;97.30
4677;DHT22;2352;48.180;11.478;2022-11-12T08:59:41;8.30;97.30
4677;DHT22;2352;48.180;11.478;2022-11-12T09:02:45;8.20;97.40
4677;DHT22;2352;48.180;11.478;2022-11-12T09:05:48;8.20;97.40
4677;DHT22;2352;48.180;11.478;2022-11-12T09:08:51;8.30;97.60
4677;DHT22;2352;48.180;11.478;2022-11-12T09:11:54;8.20;97.60
4677;DHT22;2352;48.180;11.478;2022-11-12T09:14:57;8.20;97.50
4677;DHT22;2352;48.180;11.478;2022-11-12T09:18:21;8.30;97.70
4677;DHT22;2352;48.180;11.478;2022-11-12T09:21:24;8.30;97.30
4677;DHT22;2352;48.180;11.478;2022-11-12T09:24:26;8.30;97.40
4677;DHT22;2352;48.180;11.478;2022-11-12T09:27:29;8.30;98.10
4677;DHT22;2352;48.180;11.478;2022-11-12T09:30:32;8.30;97.80
4677;DHT22;2352;48.180;11.478;2022-11-12T09:33:36;8.40;97.90
4677;DHT22;2352;48.180;11.478;2022-11-12T09:36:39;8.50;98.00
4677;DHT22;2352;48.180;11.478;2022-11-12T09:39:43;8.50;98.10
4677;DHT22;2352;48.180;11.478;2022-11-12T09:42:50;8.50;98.10
4677;DHT22;2352;48.180;11.478;2022-11-12T09:45:56;8.50;98.00
4677;DHT22;2352;48.180;11.478;2022-11-12T09:49:26;8.70;98.00
4677;DHT22;2352;48.180;11.478;2022-11-12T09:52:30;8.70;98.10
4677;DHT22;2352;48.180;11.478;2022-11-12T09:55:36;8.70;97.90
4677;DHT22;2352;48.180;11.478;2022-11-12T09:58:39;8.80;97.70
4677;DHT22;2352;48.180;11.478;2022-11-12T10:01:56;8.90;98.00
4677;DHT22;2352;48.180;11.478;2022-11-12T10:05:15;8.80;98.30
4677;DHT22;2352;48.180;11.478;2022-11-12T10:08:31;8.90;97.90
4677;DHT22;2352;48.180;11.478;2022-11-12T10:11:54;8.80;98.70
4677;DHT22;2352;48.180;11.478;2022-11-12T10:15:38;8.80;98.30
4677;DHT22;2352;48.180;11.478;2022-11-12T10:19:20;8.90;98.50
4677;DHT22;2352;48.180;11.478;2022-11-12T10:22:39;9.00;98.10
4677;DHT22;2352;48.180;11.478;2022-11-12T10:25:44;9.00;98.50
4677;DHT22;2352;48.180;11.478;2022-11-12T10:28:50;9.00;97.90
4677;DHT22;2352;48.180;11.478;2022-11-12T10:31:53;9.00;98.10
4677;DHT22;2352;48.180;11.478;2022-11-12T10:34:56;9.10;98.50
4677;DHT22;2352;48.180;11.478;2022-11-12T10:38:02;9.10;98.80
4677;DHT22;2352;48.180;11.478;2022-11-12T10:41:17;9.10;98.50
4677;DHT22;2352;48.180;11.478;2022-11-12T10:44:25;9.20;98.40
4677;DHT22;2352;48.180;11.478;2022-11-12T10:47:30;9.20;98.40
4677;DHT22;2352;48.180;11.478;2022-11-12T10:50:36;9.30;97.90
4677;DHT22;2352;48.180;11.478;2022-11-12T10:53:42;9.30;98.90
4677;DHT22;2352;48.180;11.478;2022-11-12T10:56:45;9.30;98.10
4677;DHT22;2352;48.180;11.478;2022-11-12T11:00:07;9.30;98.00
4677;DHT22;2352;48.180;11.478;2022-11-12T11:03:16;9.40;97.90
4677;DHT22;2352;48.180;11.478;2022-11-12T11:06:23;9.20;98.40
4677;DHT22;2352;48.180;11.478;2022-11-12T11:09:29;9.10;99.00
4677;DHT22;2352;48.180;11.478;2022-11-12T11:12:32;9.30;98.80
4677;DHT22;2352;48.180;11.478;2022-11-12T11:15:37;9.30;99.10
4677;DHT22;2352;48.180;11.478;2022-11-12T11:18:41;9.50;99.20
4677;DHT22;2352;48.180;11.478;2022-11-12T11:21:58;9.70;99.00
4677;DHT22;2352;48.180;11.478;2022-11-12T11:25:18;9.90;98.90
4677;DHT22;2352;48.180;11.478;2022-11-12T11:28:30;10.00;98.10
4677;DHT22;2352;48.180;11.478;2022-11-12T11:31:41;10.20;97.80
4677;DHT22;2352;48.180;11.478;2022-11-12T11:34:50;10.20;97.80
4677;DHT22;2352;48.180;11.478;2022-11-12T11:38:12;10.40;98.50
4677;DHT22;2352;48.180;11.478;2022-11-12T11:41:27;10.50;98.00
4677;DHT22;2352;48.180;11.478;2022-11-12T11:44:39;10.70;97.60
4677;DHT22;2352;48.180;11.478;2022-11-12T11:47:51;10.80;97.30
4677;DHT22;2352;48.180;11.478;2022-11-12T11:51:12;10.90;97.20
4677;DHT22;2352;48.180;11.478;2022-11-12T11:58:08;11.20;96.40
4677;DHT22;2352;48.180;11.478;2022-11-12T12:01:18;11.20;96.40
4677;DHT22;2352;48.180;11.478;2022-11-12T12:04:38;11.30;96.40
4677;DHT22;2352;48.180;11.478;2022-11-12T12:07:48;11.20;96.30
4677;DHT22;2352;48.180;11.478;2022-11-12T12:11:00;11.30;96.10
4677;DHT22;2352;48.180;11.478;2022-11-12T12:14:24;11.40;96.10
4677;DHT22;2352;48.180;11.478;2022-11-12T12:17:44;11.40;95.80
4677;DHT22;2352;48.180;11.478;2022-11-12T12:20:54;11.50;95.70
4677;DHT22;2352;48.180;11.478;2022-11-12T12:24:02;11.60;95.40
4677;DHT22;2352;48.180;11.478;2022-11-12T12:27:10;11.70;95.30
4677;DHT22;2352;48.180;11.478;2022-11-12T12:30:18;11.70;95.10
4677;DHT22;2352;48.180;11.478;2022-11-12T12:33:28;11.70;94.90
4677;DHT22;2352;48.180;11.478;2022-11-12T12:36:35;11.70;94.80
4677;DHT22;2352;48.180;11.478;2022-11-12T12:39:45;11.70;94.60
4677;DHT22;2352;48.180;11.478;2022-11-12T12:42:53;11.70;94.90
4677;DHT22;2352;48.180;11.478;2022-11-12T12:45:58;11.80;94.70
4677;DHT22;2352;48.180;11.478;2022-11-12T12:49:04;11.70;94.90
4677;DHT22;2352;48.180;11.478;2022-11-12T12:52:11;11.70;94.60
4677;DHT22;2352;48.180;11.478;2022-11-12T12:55:33;11.70;95.00
4677;DHT22;2352;48.180;11.478;2022-11-12T12:58:42;11.70;94.90
4677;DHT22;2352;48.180;11.478;2022-11-12T13:01:53;11.70;95.40
4677;DHT22;2352;48.180;11.478;2022-11-12T13:04:57;11.70;94.70
4677;DHT22;2352;48.180;11.478;2022-11-12T13:08:04;11.40;95.10
4677;DHT22;2352;48.180;11.478;2022-11-12T13:11:08;11.30;95.30
4677;DHT22;2352;48.180;11.478;2022-11-12T13:14:47;11.40;95.80
4677;DHT22;2352;48.180;11.478;2022-11-12T13:17:53;11.50;95.50
4677;DHT22;2352;48.180;11.478;2022-11-12T13:21:07;11.60;95.20
4677;DHT22;2352;48.180;11.478;2022-11-12T13:24:13;11.60;95.30
4677;DHT22;2352;48.180;11.478;2022-11-12T13:31:01;11.70;95.20
4677;DHT22;2352;48.180;11.478;2022-11-12T13:34:17;11.60;94.90
4677;DHT22;2352;48.180;11.478;2022-11-12T13:37:22;11.60;95.00
4677;DHT22;2352;48.180;11.478;2022-11-12T13:40:44;11.70;95.20
4677;DHT22;2352;48.180;11.478;2022-11-12T13:43:48;11.70;94.90
4677;DHT22;2352;48.180;11.478;2022-11-12T13:46:51;11.70;95.00
4677;DHT22;2352;48.180;11.478;2022-11-12T13:50:00;11.70;95.10
4677;DHT22;2352;48.180;11.478;2022-11-12T13:53:07;11.70;95.10
4677;DHT22;2352;48.180;11.478;2022-11-12T13:56:11;11.70;95.10
4677;DHT22;2352;48.180;11.478;2022-11-12T13:59:15;11.70;95.10
4677;DHT22;2352;48.180;11.478;2022-11-12T14:02:21;11.70;95.20
4677;DHT22;2352;48.180;11.478;2022-11-12T14:05:28;11.70;95.40
4677;DHT22;2352;48.180;11.478;2022-11-12T14:08:43;11.70;95.30
4677;DHT22;2352;48.180;11.478;2022-11-12T14:11:59;11.60;95.10
4677;DHT22;2352;48.180;11.478;2022-11-12T14:15:23;11.60;95.00
4677;DHT22;2352;48.180;11.478;2022-11-12T14:18:32;11.40;95.50
4677;DHT22;2352;48.180;11.478;2022-11-12T14:21:41;11.40;95.50
4677;DHT22;2352;48.180;11.478;2022-11-12T14:24:45;11.40;95.50
4677;DHT22;2352;48.180;11.478;2022-11-12T14:27:50;11.50;95.40
4677;DHT22;2352;48.180;11.478;2022-11-12T14:30:54;11.50;95.40
4677;DHT22;2352;48.180;11.478;2022-11-12T14:34:20;11.40;95.40
4677;DHT22;2352;48.180;11.478;2022-11-12T14:37:34;11.40;95.50
4677;DHT22;2352;48.180;11.478;2022-11-12T14:40:47;11.30;95.50
4677;DHT22;2352;48.180;11.478;2022-11-12T14:43:52;11.30;95.60
4677;DHT22;2352;48.180;11.478;2022-11-12T14:47:16;11.30;95.50
4677;DHT22;2352;48.180;11.478;2022-11-12T14:50:23;11.30;95.70
4677;DHT22;2352;48.180;11.478;2022-11-12T14:53:31;11.30;95.50
4677;DHT22;2352;48.180;11.478;2022-11-12T14:56:40;11.30;95.60
4677;DHT22;2352;48.180;11.478;2022-11-12T14:59:43;11.20;95.70
4677;DHT22;2352;48.180;11.478;2022-11-12T15:02:47;11.10;96.00
4677;DHT22;2352;48.180;11.478;2022-11-12T15:06:08;11.10;95.90
4677;DHT22;2352;48.180;11.478;2022-11-12T15:09:15;11.00;96.00
4677;DHT22;2352;48.180;11.478;2022-11-12T15:12:20;11.10;96.00
4677;DHT22;2352;48.180;11.478;2022-11-12T15:15:25;11.10;96.00
4677;DHT22;2352;48.180;11.478;2022-11-12T15:18:29;11.00;96.20
4677;DHT22;2352;48.180;11.478;2022-11-12T15:21:34;11.00;96.30
4677;DHT22;2352;48.180;11.478;2022-11-12T15:24:38;11.00;96.20
4677;DHT22;2352;48.180;11.478;2022-11-12T15:27:44;11.00;97.20
4677;DHT22;2352;48.180;11.478;2022-11-12T15:30:59;11.00;96.50
4677;DHT22;2352;48.180;11.478;2022-11-12T15:34:29;11.00;96.20
4677;DHT22;2352;48.180;11.478;2022-11-12T15:37:40;11.00;96.00
4677;DHT22;2352;48.180;11.478;2022-11-12T15:40:45;10.90;96.20
4677;DHT22;2352;48.180;11.478;2022-11-12T15:43:48;10.80;96.20
4677;DHT22;2352;48.180;11.478;2022-11-12T15:46:51;10.80;96.40
4677;DHT22;2352;48.180;11.478;2022-11-12T15:49:56;10.80;96.80
4677;DHT22;2352;48.180;11.478;2022-11-12T15:52:59;10.80;96.60
4677;DHT22;2352;48.180;11.478;2022-11-12T15:56:04;10.70;96.60
4677;DHT22;2352;48.180;11.478;2022-11-12T15:59:09;10.60;96.70
4677;DHT22;2352;48.180;11.478;2022-11-12T16:02:15;10.60;97.00
4677;DHT22;2352;48.180;11.478;2022-11-12T16:05:18;10.60;97.10
4677;DHT22;2352;48.180;11.478;2022-11-12T16:08:21;10.60;97.20
4677;DHT22;2352;48.180;11.478;2022-11-12T16:11:26;10.50;97.30
4677;DHT22;2352;48.180;11.478;2022-11-12T16:14:38;10.40;97.90
4677;DHT22;2352;48.180;11.478;2022-11-12T16:17:40;10.40;97.70
4677;DHT22;2352;48.180;11.478;2022-11-12T16:20:43;10.40;97.80
4677;DHT22;2352;48.180;11.478;2022-11-12T16:23:47;10.40;97.80
4677;DHT22;2352;48.180;11.478;2022-11-12T16:26:52;10.40;97.90
4677;DHT22;2352;48.180;11.478;2022-11-12T16:29:55;10.40;98.00
4677;DHT22;2352;48.180;11.478;2022-11-12T16:32:59;10.50;97.60
4677;DHT22;2352;48.180;11.478;2022-11-12T16:36:02;10.40;97.70
4677;DHT22;2352;48.180;11.478;2022-11-12T16:39:05;10.50;97.60
4677;DHT22;2352;48.180;11.478;2022-11-12T16:42:10;10.40;97.80
4677;DHT22;2352;48.180;11.478;2022-11-12T16:45:13;10.40;98.00
4677;DHT22;2352;48.180;11.478;2022-11-12T16:48:18;10.40;97.90
4677;DHT22;2352;48.180;11.478;2022-11-12T16:51:22;10.40;98.00
4677;DHT22;2352;48.180;11.478;2022-11-12T16:54:24;10.40;97.90
4677;DHT22;2352;48.180;11.478;2022-11-12T16:57:29;10.40;98.00
4677;DHT22;2352;48.180;11.478;2022-11-12T17:00:31;10.40;97.90
4677;DHT22;2352;48.180;11.478;2022-11-12T17:03:34;10.40;97.90
4677;DHT22;2352;48.180;11.478;2022-11-12T17:06:38;10.30;97.90
4677;DHT22;2352;48.180;11.478;2022-11-12T17:09:42;10.40;98.00
4677;DHT22;2352;48.180;11.478;2022-11-12T17:12:48;10.40;98.00
4677;DHT22;2352;48.180;11.478;2022-11-12T17:15:55;10.30;97.90
4677;DHT22;2352;48.180;11.478;2022-11-12T17:19:00;10.20;98.30
4677;DHT22;2352;48.180;11.478;2022-11-12T17:22:03;10.20;98.00
4677;DHT22;2352;48.180;11.478;2022-11-12T17:25:07;10.20;98.00
4677;DHT22;2352;48.180;11.478;2022-11-12T17:28:12;10.20;98.30
4677;DHT22;2352;48.180;11.478;2022-11-12T17:31:17;10.10;98.30
4677;DHT22;2352;48.180;11.478;2022-11-12T17:34:20;10.10;98.40
4677;DHT22;2352;48.180;11.478;2022-11-12T17:37:23;10.10;98.00
4677;DHT22;2352;48.180;11.478;2022-11-12T17:40:26;10.20;98.10
4677;DHT22;2352;48.180;11.478;2022-11-12T17:43:30;10.20;98.00
4677;DHT22;2352;48.180;11.478;2022-11-12T17:46:33;10.10;97.90
4677;DHT22;2352;48.180;11.478;2022-11-12T17:49:36;9.90;98.30
4677;DHT22;2352;48.180;11.478;2022-11-12T17:52:39;10.00;98.40
4677;DHT22;2352;48.180;11.478;2022-11-12T17:55:42;10.00;98.20
4677;DHT22;2352;48.180;11.478;2022-11-12T17:58:47;10.10;98.30
4677;DHT22;2352;48.180;11.478;2022-11-12T18:01:50;10.10;98.40
4677;DHT22;2352;48.180;11.478;2022-11-12T18:04:53;10.10;98.20
4677;DHT22;2352;48.180;11.478;2022-11-12T18:07:56;10.10;98.40
4677;DHT22;2352;48.180;11.478;2022-11-12T18:11:01;10.10;98.40
4677;DHT22;2352;48.180;11.478;2022-11-12T18:14:07;10.00;98.50
4677;DHT22;2352;48.180;11.478;2022-11-12T18:17:10;10.00;98.50
4677;DHT22;2352;48.180;11.478;2022-11-12T18:20:15;10.10;98.60
4677;DHT22;2352;48.180;11.478;2022-11-12T18:23:18;10.10;98.50
4677;DHT22;2352;48.180;11.478;2022-11-12T18:26:21;10.10;98.40
4677;DHT22;2352;48.180;11.478;2022-11-12T18:29:25;10.20;98.50
4677;DHT22;2352;48.180;11.478;2022-11-12T18:32:28;10.10;98.50
4677;DHT22;2352;48.180;11.478;2022-11-12T18:35:30;10.10;98.50
4677;DHT22;2352;48.180;11.478;2022-11-12T18:38:34;10.10;98.60
4677;DHT22;2352;48.180;11.478;2022-11-12T18:41:37;10.10;98.70
4677;DHT22;2352;48.180;11.478;2022-11-12T18:44:41;10.00;98.80
4677;DHT22;2352;48.180;11.478;2022-11-12T18:47:44;10.10;98.80
4677;DHT22;2352;48.180;11.478;2022-11-12T18:50:47;10.10;98.60
4677;DHT22;2352;48.180;11.478;2022-11-12T18:53:50;10.10;98.70
4677;DHT22;2352;48.180;11.478;2022-11-12T18:56:52;10.00;98.70
4677;DHT22;2352;48.180;11.478;2022-11-12T18:59:57;10.00;98.70
4677;DHT22;2352;48.180;11.478;2022-11-12T19:02:59;9.90;98.80
4677;DHT22;2352;48.180;11.478;2022-11-12T19:06:04;9.90;98.90
4677;DHT22;2352;48.180;11.478;2022-11-12T19:09:08;10.00;98.90
4677;DHT22;2352;48.180;11.478;2022-11-12T19:12:12;10.00;98.60
4677;DHT22;2352;48.180;11.478;2022-11-12T19:15:16;10.00;98.80
4677;DHT22;2352;48.180;11.478;2022-11-12T19:18:26;10.00;98.70
4677;DHT22;2352;48.180;11.478;2022-11-12T19:21:29;10.00;98.40
4677;DHT22;2352;48.180;11.478;2022-11-12T19:24:32;10.00;98.60
4677;DHT22;2352;48.180;11.478;2022-11-12T19:27:35;10.00;98.60
4677;DHT22;2352;48.180;11.478;2022-11-12T19:30:39;10.00;98.50
4677;DHT22;2352;48.180;11.478;2022-11-12T19:33:42;10.00;98.40
4677;DHT22;2352;48.180;11.478;2022-11-12T19:36:45;9.90;98.60
4677;DHT22;2352;48.180;11.478;2022-11-12T19:39:53;9.80;98.60
4677;DHT22;2352;48.180;11.478;2022-11-12T19:42:56;9.90;98.60
4677;DHT22;2352;48.180;11.478;2022-11-12T19:46:01;9.90;98.60
4677;DHT22;2352;48.180;11.478;2022-11-12T19:49:03;9.80;98.40
4677;DHT22;2352;48.180;11.478;2022-11-12T19:52:06;9.80;98.40
4677;DHT22;2352;48.180;11.478;2022-11-12T19:55:09;9.80;98.60
4677;DHT22;2352;48.180;11.478;2022-11-12T19:58:12;9.80;98.60
4677;DHT22;2352;48.180;11.478;2022-11-12T20:01:17;9.80;98.60
4677;DHT22;2352;48.180;11.478;2022-11-12T20:04:20;9.80;98.50
4677;DHT22;2352;48.180;11.478;2022-11-12T20:07:25;9.80;98.60
4677;DHT22;2352;48.180;11.478;2022-11-12T20:10:28;9.80;98.70
4677;DHT22;2352;48.180;11.478;2022-11-12T20:13:31;9.70;98.70